sensor_id;sensor_type;location;lat;lon;timestamp;P1;durP1;ratioP1;P2;durP2;ratioP2
5682;SDS011;2864;49.220;8.654;2023-03-23T00:00:09;2.30;;;1.80;;
5682;SDS011;2864;49.220;8.654;2023-03-23T00:02:35;1.70;;;1.53;;
5682;SDS011;2864;49.220;8.654;2023-03-23T00:05:03;1.63;;;1.53;;
5682;SDS011;2864;49.220;8.654;2023-03-23T00:07:29;3.37;;;1.90;;
5682;SDS011;2864;49.220;8.654;2023-03-23T00:09:55;1.90;;;1.70;;
5682;SDS011;2864;49.220;8.654;2023-03-23T00:12:21;1.90;;;1.70;;
5682;SDS011;2864;49.220;8.654;2023-03-23T00:15:01;1.70;;;1.60;;
5682;SDS011;2864;49.220;8.654;2023-03-23T00:17:28;1.83;;;1.73;;
5682;SDS011;2864;49.220;8.654;2023-03-23T00:19:54;1.70;;;1.60;;
5682;SDS011;2864;49.220;8.654;2023-03-23T00:22:21;1.70;;;1.50;;
5682;SDS011;2864;49.220;8.654;2023-03-23T00:24:49;2.73;;;1.50;;
5682;SDS011;2864;49.220;8.654;2023-03-23T00:27:16;2.87;;;1.60;;
5682;SDS011;2864;49.220;8.654;2023-03-23T00:29:42;1.50;;;1.40;;
5682;SDS011;2864;49.220;8.654;2023-03-23T00:32:10;1.93;;;1.40;;
5682;SDS011;2864;49.220;8.654;2023-03-23T00:34:39;1.63;;;1.37;;
5682;SDS011;2864;49.220;8.654;2023-03-23T00:37:06;2.00;;;1.50;;
5682;SDS011;2864;49.220;8.654;2023-03-23T00:39:32;2.03;;;1.47;;
5682;SDS011;2864;49.220;8.654;2023-03-23T00:42:01;1.63;;;1.50;;
5682;SDS011;2864;49.220;8.654;2023-03-23T00:44:28;1.90;;;1.57;;
5682;SDS011;2864;49.220;8.654;2023-03-23T00:46:55;1.50;;;1.40;;
5682;SDS011;2864;49.220;8.654;2023-03-23T00:49:22;1.90;;;1.70;;
5682;SDS011;2864;49.220;8.654;2023-03-23T00:51:49;2.07;;;1.50;;
5682;SDS011;2864;49.220;8.654;2023-03-23T00:54:15;1.50;;;1.40;;
5682;SDS011;2864;49.220;8.654;2023-03-23T00:56:41;1.60;;;1.40;;
5682;SDS011;2864;49.220;8.654;2023-03-23T00:59:07;1.93;;;1.50;;
5682;SDS011;2864;49.220;8.654;2023-03-23T01:01:33;2.40;;;1.67;;
5682;SDS011;2864;49.220;8.654;2023-03-23T01:04:00;1.93;;;1.73;;
5682;SDS011;2864;49.220;8.654;2023-03-23T01:06:29;2.97;;;1.50;;
5682;SDS011;2864;49.220;8.654;2023-03-23T01:08:55;2.03;;;1.53;;
5682;SDS011;2864;49.220;8.654;2023-03-23T01:11:22;1.47;;;1.37;;
5682;SDS011;2864;49.220;8.654;2023-03-23T01:13:49;1.80;;;1.70;;
5682;SDS011;2864;49.220;8.654;2023-03-23T01:16:15;1.87;;;1.50;;
5682;SDS011;2864;49.220;8.654;2023-03-23T01:18:41;2.50;;;1.60;;
5682;SDS011;2864;49.220;8.654;2023-03-23T01:21:08;1.90;;;1.73;;
5682;SDS011;2864;49.220;8.654;2023-03-23T01:23:35;2.80;;;1.60;;
5682;SDS011;2864;49.220;8.654;2023-03-23T01:26:05;1.70;;;1.60;;
5682;SDS011;2864;49.220;8.654;2023-03-23T01:28:32;2.00;;;1.80;;
5682;SDS011;2864;49.220;8.654;2023-03-23T01:30:59;2.97;;;1.93;;
5682;SDS011;2864;49.220;8.654;2023-03-23T01:33:25;1.70;;;1.53;;
5682;SDS011;2864;49.220;8.654;2023-03-23T01:35:51;2.27;;;1.40;;
5682;SDS011;2864;49.220;8.654;2023-03-23T01:38:17;2.53;;;1.60;;
5682;SDS011;2864;49.220;8.654;2023-03-23T01:40:43;2.00;;;1.50;;
5682;SDS011;2864;49.220;8.654;2023-03-23T01:43:11;1.80;;;1.60;;
5682;SDS011;2864;49.220;8.654;2023-03-23T01:45:38;1.53;;;1.43;;
5682;SDS011;2864;49.220;8.654;2023-03-23T01:48:19;1.70;;;1.50;;
5682;SDS011;2864;49.220;8.654;2023-03-23T01:50:51;3.43;;;1.33;;
5682;SDS011;2864;49.220;8.654;2023-03-23T01:53:22;2.73;;;1.70;;
5682;SDS011;2864;49.220;8.654;2023-03-23T01:55:50;1.53;;;1.43;;
5682;SDS011;2864;49.220;8.654;2023-03-23T01:58:21;1.80;;;1.50;;
5682;SDS011;2864;49.220;8.654;2023-03-23T02:00:51;1.77;;;1.67;;
5682;SDS011;2864;49.220;8.654;2023-03-23T02:03:18;1.90;;;1.70;;
5682;SDS011;2864;49.220;8.654;2023-03-23T02:05:45;1.97;;;1.70;;
5682;SDS011;2864;49.220;8.654;2023-03-23T02:08:11;2.07;;;1.70;;
5682;SDS011;2864;49.220;8.654;2023-03-23T02:10:38;2.23;;;1.80;;
5682;SDS011;2864;49.220;8.654;2023-03-23T02:13:04;3.43;;;1.77;;
5682;SDS011;2864;49.220;8.654;2023-03-23T02:15:37;2.83;;;1.50;;
5682;SDS011;2864;49.220;8.654;2023-03-23T02:23:27;2.03;;;1.67;;
5682;SDS011;2864;49.220;8.654;2023-03-23T02:33:56;1.93;;;1.73;;
5682;SDS011;2864;49.220;8.654;2023-03-23T02:39:09;2.20;;;2.00;;
5682;SDS011;2864;49.220;8.654;2023-03-23T02:44:22;2.40;;;1.60;;
5682;SDS011;2864;49.220;8.654;2023-03-23T02:46:50;2.87;;;1.63;;
5682;SDS011;2864;49.220;8.654;2023-03-23T02:49:16;1.70;;;1.60;;
5682;SDS011;2864;49.220;8.654;2023-03-23T02:51:43;1.70;;;1.60;;
5682;SDS011;2864;49.220;8.654;2023-03-23T02:54:11;1.40;;;1.30;;
5682;SDS011;2864;49.220;8.654;2023-03-23T02:56:38;2.10;;;1.70;;
5682;SDS011;2864;49.220;8.654;2023-03-23T02:59:04;3.70;;;1.90;;
5682;SDS011;2864;49.220;8.654;2023-03-23T03:03:57;1.97;;;1.73;;
5682;SDS011;2864;49.220;8.654;2023-03-23T03:12:02;1.80;;;1.70;;
5682;SDS011;2864;49.220;8.654;2023-03-23T03:14:31;4.23;;;1.70;;
5682;SDS011;2864;49.220;8.654;2023-03-23T03:17:23;1.80;;;1.70;;
5682;SDS011;2864;49.220;8.654;2023-03-23T03:19:50;2.40;;;1.83;;
5682;SDS011;2864;49.220;8.654;2023-03-23T03:22:18;2.60;;;1.60;;
5682;SDS011;2864;49.220;8.654;2023-03-23T03:24:45;1.80;;;1.70;;
5682;SDS011;2864;49.220;8.654;2023-03-23T03:27:13;3.57;;;2.10;;
5682;SDS011;2864;49.220;8.654;2023-03-23T03:29:42;5.50;;;2.57;;
5682;SDS011;2864;49.220;8.654;2023-03-23T03:32:12;6.53;;;2.83;;
5682;SDS011;2864;49.220;8.654;2023-03-23T03:34:38;3.23;;;2.37;;
5682;SDS011;2864;49.220;8.654;2023-03-23T03:37:05;3.47;;;2.00;;
5682;SDS011;2864;49.220;8.654;2023-03-23T03:39:33;2.37;;;2.10;;
5682;SDS011;2864;49.220;8.654;2023-03-23T03:42:00;2.30;;;2.10;;
5682;SDS011;2864;49.220;8.654;2023-03-23T03:44:26;4.73;;;2.37;;
5682;SDS011;2864;49.220;8.654;2023-03-23T03:46:52;4.47;;;2.20;;
5682;SDS011;2864;49.220;8.654;2023-03-23T03:49:18;3.37;;;2.57;;
5682;SDS011;2864;49.220;8.654;2023-03-23T03:51:44;6.03;;;2.67;;
5682;SDS011;2864;49.220;8.654;2023-03-23T03:54:10;5.23;;;2.73;;
5682;SDS011;2864;49.220;8.654;2023-03-23T03:56:36;6.10;;;2.63;;
5682;SDS011;2864;49.220;8.654;2023-03-23T03:59:05;6.90;;;2.63;;
5682;SDS011;2864;49.220;8.654;2023-03-23T04:01:32;3.90;;;2.23;;
5682;SDS011;2864;49.220;8.654;2023-03-23T04:03:58;4.17;;;2.00;;
5682;SDS011;2864;49.220;8.654;2023-03-23T04:06:24;4.17;;;2.10;;
5682;SDS011;2864;49.220;8.654;2023-03-23T04:08:52;3.03;;;1.63;;
5682;SDS011;2864;49.220;8.654;2023-03-23T04:11:20;2.63;;;1.90;;
5682;SDS011;2864;49.220;8.654;2023-03-23T04:13:46;4.53;;;2.17;;
5682;SDS011;2864;49.220;8.654;2023-03-23T04:16:12;1.70;;;1.60;;
5682;SDS011;2864;49.220;8.654;2023-03-23T04:18:38;2.63;;;1.90;;
5682;SDS011;2864;49.220;8.654;2023-03-23T04:21:04;2.43;;;1.80;;
5682;SDS011;2864;49.220;8.654;2023-03-23T04:23:32;3.33;;;2.07;;
5682;SDS011;2864;49.220;8.654;2023-03-23T04:26:00;2.00;;;1.73;;
5682;SDS011;2864;49.220;8.654;2023-03-23T04:28:26;2.73;;;2.00;;
5682;SDS011;2864;49.220;8.654;2023-03-23T04:30:52;2.80;;;1.80;;
5682;SDS011;2864;49.220;8.654;2023-03-23T04:33:19;4.07;;;1.90;;
5682;SDS011;2864;49.220;8.654;2023-03-23T04:35:46;2.93;;;1.80;;
5682;SDS011;2864;49.220;8.654;2023-03-23T04:38:13;2.20;;;2.00;;
5682;SDS011;2864;49.220;8.654;2023-03-23T04:40:40;2.20;;;1.80;;
5682;SDS011;2864;49.220;8.654;2023-03-23T04:43:06;2.20;;;1.83;;
5682;SDS011;2864;49.220;8.654;2023-03-23T04:45:32;2.53;;;2.13;;
5682;SDS011;2864;49.220;8.654;2023-03-23T04:47:59;2.53;;;2.33;;
5682;SDS011;2864;49.220;8.654;2023-03-23T04:50:27;1.90;;;1.70;;
5682;SDS011;2864;49.220;8.654;2023-03-23T04:52:55;2.93;;;2.13;;
5682;SDS011;2864;49.220;8.654;2023-03-23T04:55:22;5.53;;;2.40;;
5682;SDS011;2864;49.220;8.654;2023-03-23T04:57:48;7.27;;;2.60;;
5682;SDS011;2864;49.220;8.654;2023-03-23T05:00:15;4.33;;;2.30;;
5682;SDS011;2864;49.220;8.654;2023-03-23T05:02:42;2.77;;;2.10;;
5682;SDS011;2864;49.220;8.654;2023-03-23T05:05:09;2.07;;;1.90;;
5682;SDS011;2864;49.220;8.654;2023-03-23T05:07:37;3.00;;;2.23;;
5682;SDS011;2864;49.220;8.654;2023-03-23T05:10:03;4.37;;;3.00;;
5682;SDS011;2864;49.220;8.654;2023-03-23T05:12:30;5.97;;;3.37;;
5682;SDS011;2864;49.220;8.654;2023-03-23T05:14:57;3.17;;;2.60;;
5682;SDS011;2864;49.220;8.654;2023-03-23T05:17:23;4.60;;;2.20;;
5682;SDS011;2864;49.220;8.654;2023-03-23T05:19:50;2.87;;;2.10;;
5682;SDS011;2864;49.220;8.654;2023-03-23T05:22:16;3.23;;;2.30;;
5682;SDS011;2864;49.220;8.654;2023-03-23T05:24:42;3.17;;;1.97;;
5682;SDS011;2864;49.220;8.654;2023-03-23T05:27:11;2.77;;;2.07;;
5682;SDS011;2864;49.220;8.654;2023-03-23T05:29:37;4.60;;;2.13;;
5682;SDS011;2864;49.220;8.654;2023-03-23T05:32:05;3.60;;;2.30;;
5682;SDS011;2864;49.220;8.654;2023-03-23T05:34:32;2.53;;;1.90;;
5682;SDS011;2864;49.220;8.654;2023-03-23T05:36:59;2.40;;;2.10;;
5682;SDS011;2864;49.220;8.654;2023-03-23T05:39:25;2.63;;;1.90;;
5682;SDS011;2864;49.220;8.654;2023-03-23T05:41:51;4.30;;;2.87;;
5682;SDS011;2864;49.220;8.654;2023-03-23T05:44:17;2.93;;;2.37;;
5682;SDS011;2864;49.220;8.654;2023-03-23T05:46:43;4.07;;;2.10;;
5682;SDS011;2864;49.220;8.654;2023-03-23T05:49:09;2.93;;;2.00;;
5682;SDS011;2864;49.220;8.654;2023-03-23T05:51:35;2.20;;;1.90;;
5682;SDS011;2864;49.220;8.654;2023-03-23T05:54:02;4.23;;;2.20;;
5682;SDS011;2864;49.220;8.654;2023-03-23T05:56:28;5.63;;;2.03;;
5682;SDS011;2864;49.220;8.654;2023-03-23T05:58:55;3.57;;;2.27;;
5682;SDS011;2864;49.220;8.654;2023-03-23T06:01:21;2.00;;;1.90;;
5682;SDS011;2864;49.220;8.654;2023-03-23T06:03:48;2.53;;;2.20;;
5682;SDS011;2864;49.220;8.654;2023-03-23T06:06:16;2.73;;;2.10;;
5682;SDS011;2864;49.220;8.654;2023-03-23T06:08:43;2.33;;;2.10;;
5682;SDS011;2864;49.220;8.654;2023-03-23T06:11:09;4.73;;;2.40;;
5682;SDS011;2864;49.220;8.654;2023-03-23T06:13:35;3.23;;;2.10;;
5682;SDS011;2864;49.220;8.654;2023-03-23T06:16:02;3.13;;;2.10;;
5682;SDS011;2864;49.220;8.654;2023-03-23T06:18:28;2.53;;;2.33;;
5682;SDS011;2864;49.220;8.654;2023-03-23T06:20:58;3.40;;;2.17;;
5682;SDS011;2864;49.220;8.654;2023-03-23T06:23:25;4.93;;;2.13;;
5682;SDS011;2864;49.220;8.654;2023-03-23T06:25:53;3.73;;;2.30;;
5682;SDS011;2864;49.220;8.654;2023-03-23T06:28:19;2.77;;;2.20;;
5682;SDS011;2864;49.220;8.654;2023-03-23T06:30:45;2.10;;;1.90;;
5682;SDS011;2864;49.220;8.654;2023-03-23T06:33:11;3.20;;;2.30;;
5682;SDS011;2864;49.220;8.654;2023-03-23T06:35:37;4.13;;;2.00;;
5682;SDS011;2864;49.220;8.654;2023-03-23T06:38:03;2.70;;;2.00;;
5682;SDS011;2864;49.220;8.654;2023-03-23T06:40:29;3.40;;;2.03;;
5682;SDS011;2864;49.220;8.654;2023-03-23T06:42:58;3.27;;;1.97;;
5682;SDS011;2864;49.220;8.654;2023-03-23T06:45:24;3.33;;;2.07;;
5682;SDS011;2864;49.220;8.654;2023-03-23T06:47:50;3.83;;;2.10;;
5682;SDS011;2864;49.220;8.654;2023-03-23T06:50:17;2.40;;;2.00;;
5682;SDS011;2864;49.220;8.654;2023-03-23T06:52:46;4.43;;;2.50;;
5682;SDS011;2864;49.220;8.654;2023-03-23T06:55:13;4.70;;;2.77;;
5682;SDS011;2864;49.220;8.654;2023-03-23T06:57:39;2.47;;;2.13;;
5682;SDS011;2864;49.220;8.654;2023-03-23T07:00:06;4.87;;;2.53;;
5682;SDS011;2864;49.220;8.654;2023-03-23T07:02:34;3.07;;;2.07;;
5682;SDS011;2864;49.220;8.654;2023-03-23T07:05:00;3.87;;;2.00;;
5682;SDS011;2864;49.220;8.654;2023-03-23T07:07:28;3.43;;;2.13;;
5682;SDS011;2864;49.220;8.654;2023-03-23T07:09:54;3.17;;;2.00;;
5682;SDS011;2864;49.220;8.654;2023-03-23T07:12:20;3.10;;;2.07;;
5682;SDS011;2864;49.220;8.654;2023-03-23T07:14:46;3.70;;;2.20;;
5682;SDS011;2864;49.220;8.654;2023-03-23T07:17:13;2.40;;;2.10;;
5682;SDS011;2864;49.220;8.654;2023-03-23T07:19:39;2.20;;;2.00;;
5682;SDS011;2864;49.220;8.654;2023-03-23T07:22:05;4.07;;;1.90;;
5682;SDS011;2864;49.220;8.654;2023-03-23T07:24:32;2.40;;;1.83;;
5682;SDS011;2864;49.220;8.654;2023-03-23T07:26:58;2.83;;;2.00;;
5682;SDS011;2864;49.220;8.654;2023-03-23T07:29:24;2.67;;;2.00;;
5682;SDS011;2864;49.220;8.654;2023-03-23T07:31:50;4.70;;;1.80;;
5682;SDS011;2864;49.220;8.654;2023-03-23T07:34:17;2.87;;;2.00;;
5682;SDS011;2864;49.220;8.654;2023-03-23T07:36:44;3.77;;;1.70;;
5682;SDS011;2864;49.220;8.654;2023-03-23T07:39:10;1.77;;;1.67;;
5682;SDS011;2864;49.220;8.654;2023-03-23T07:41:37;1.90;;;1.70;;
5682;SDS011;2864;49.220;8.654;2023-03-23T07:44:03;1.90;;;1.40;;
5682;SDS011;2864;49.220;8.654;2023-03-23T07:46:29;2.67;;;2.00;;
5682;SDS011;2864;49.220;8.654;2023-03-23T07:48:55;2.53;;;1.50;;
5682;SDS011;2864;49.220;8.654;2023-03-23T07:51:21;2.80;;;1.60;;
5682;SDS011;2864;49.220;8.654;2023-03-23T07:53:47;1.60;;;1.50;;
5682;SDS011;2864;49.220;8.654;2023-03-23T07:56:15;1.70;;;1.60;;
5682;SDS011;2864;49.220;8.654;2023-03-23T07:58:44;3.23;;;1.67;;
5682;SDS011;2864;49.220;8.654;2023-03-23T08:01:10;3.20;;;1.60;;
5682;SDS011;2864;49.220;8.654;2023-03-23T08:03:36;1.67;;;1.57;;
5682;SDS011;2864;49.220;8.654;2023-03-23T08:06:02;2.70;;;1.60;;
5682;SDS011;2864;49.220;8.654;2023-03-23T08:08:29;3.03;;;1.60;;
5682;SDS011;2864;49.220;8.654;2023-03-23T08:10:55;2.87;;;1.50;;
5682;SDS011;2864;49.220;8.654;2023-03-23T08:13:21;2.83;;;1.80;;
5682;SDS011;2864;49.220;8.654;2023-03-23T08:15:47;1.80;;;1.60;;
5682;SDS011;2864;49.220;8.654;2023-03-23T08:18:14;1.70;;;1.60;;
5682;SDS011;2864;49.220;8.654;2023-03-23T08:20:40;2.40;;;1.70;;
5682;SDS011;2864;49.220;8.654;2023-03-23T08:23:06;1.90;;;1.70;;
5682;SDS011;2864;49.220;8.654;2023-03-23T08:25:32;2.87;;;1.80;;
5682;SDS011;2864;49.220;8.654;2023-03-23T08:27:59;2.03;;;1.80;;
5682;SDS011;2864;49.220;8.654;2023-03-23T08:30:28;2.07;;;1.80;;
5682;SDS011;2864;49.220;8.654;2023-03-23T08:32:55;2.00;;;1.70;;
5682;SDS011;2864;49.220;8.654;2023-03-23T08:35:22;3.47;;;1.63;;
5682;SDS011;2864;49.220;8.654;2023-03-23T08:37:48;3.30;;;1.90;;
5682;SDS011;2864;49.220;8.654;2023-03-23T08:40:16;1.80;;;1.70;;
5682;SDS011;2864;49.220;8.654;2023-03-23T08:42:44;1.90;;;1.70;;
5682;SDS011;2864;49.220;8.654;2023-03-23T08:45:11;2.57;;;1.70;;
5682;SDS011;2864;49.220;8.654;2023-03-23T08:47:40;2.97;;;1.70;;
5682;SDS011;2864;49.220;8.654;2023-03-23T08:50:07;2.50;;;2.10;;
5682;SDS011;2864;49.220;8.654;2023-03-23T08:52:36;3.67;;;1.93;;
5682;SDS011;2864;49.220;8.654;2023-03-23T08:55:02;4.03;;;2.10;;
5682;SDS011;2864;49.220;8.654;2023-03-23T08:57:28;4.47;;;2.10;;
5682;SDS011;2864;49.220;8.654;2023-03-23T08:59:54;3.30;;;2.10;;
5682;SDS011;2864;49.220;8.654;2023-03-23T09:02:24;3.67;;;2.77;;
5682;SDS011;2864;49.220;8.654;2023-03-23T09:04:51;3.10;;;2.50;;
5682;SDS011;2864;49.220;8.654;2023-03-23T09:07:17;5.07;;;2.33;;
5682;SDS011;2864;49.220;8.654;2023-03-23T09:09:44;3.10;;;2.30;;
5682;SDS011;2864;49.220;8.654;2023-03-23T09:12:10;3.13;;;2.40;;
5682;SDS011;2864;49.220;8.654;2023-03-23T09:14:37;3.37;;;2.50;;
5682;SDS011;2864;49.220;8.654;2023-03-23T09:17:03;3.80;;;2.30;;
5682;SDS011;2864;49.220;8.654;2023-03-23T09:19:30;3.30;;;2.30;;
5682;SDS011;2864;49.220;8.654;2023-03-23T09:21:57;2.70;;;2.00;;
5682;SDS011;2864;49.220;8.654;2023-03-23T09:24:24;3.20;;;2.70;;
5682;SDS011;2864;49.220;8.654;2023-03-23T09:26:50;4.23;;;2.27;;
5682;SDS011;2864;49.220;8.654;2023-03-23T09:29:17;3.47;;;2.57;;
5682;SDS011;2864;49.220;8.654;2023-03-23T09:31:43;1.90;;;1.70;;
5682;SDS011;2864;49.220;8.654;2023-03-23T09:34:11;1.87;;;1.77;;
5682;SDS011;2864;49.220;8.654;2023-03-23T09:36:37;2.50;;;1.60;;
5682;SDS011;2864;49.220;8.654;2023-03-23T09:39:04;2.53;;;1.90;;
5682;SDS011;2864;49.220;8.654;2023-03-23T09:41:52;2.07;;;1.83;;
5682;SDS011;2864;49.220;8.654;2023-03-23T09:49:48;2.13;;;1.67;;
5682;SDS011;2864;49.220;8.654;2023-03-23T09:52:16;2.17;;;1.60;;
5682;SDS011;2864;49.220;8.654;2023-03-23T09:54:50;2.40;;;1.73;;
5682;SDS011;2864;49.220;8.654;2023-03-23T09:59:48;3.50;;;1.70;;
5682;SDS011;2864;49.220;8.654;2023-03-23T10:02:27;2.17;;;1.70;;
5682;SDS011;2864;49.220;8.654;2023-03-23T10:04:54;2.17;;;1.73;;
5682;SDS011;2864;49.220;8.654;2023-03-23T10:07:24;2.20;;;1.90;;
5682;SDS011;2864;49.220;8.654;2023-03-23T10:09:56;4.77;;;1.73;;
5682;SDS011;2864;49.220;8.654;2023-03-23T10:17:46;2.93;;;1.50;;
5682;SDS011;2864;49.220;8.654;2023-03-23T10:23:01;1.63;;;1.50;;
5682;SDS011;2864;49.220;8.654;2023-03-23T10:25:30;2.63;;;1.50;;
5682;SDS011;2864;49.220;8.654;2023-03-23T10:28:13;1.83;;;1.63;;
5682;SDS011;2864;49.220;8.654;2023-03-23T10:30:40;1.40;;;1.30;;
5682;SDS011;2864;49.220;8.654;2023-03-23T10:35:41;2.30;;;1.50;;
5682;SDS011;2864;49.220;8.654;2023-03-23T10:38:18;2.37;;;1.50;;
5682;SDS011;2864;49.220;8.654;2023-03-23T10:40:47;1.77;;;1.63;;
5682;SDS011;2864;49.220;8.654;2023-03-23T10:43:20;1.63;;;1.53;;
5682;SDS011;2864;49.220;8.654;2023-03-23T10:45:48;1.90;;;1.60;;
5682;SDS011;2864;49.220;8.654;2023-03-23T10:48:27;2.03;;;1.60;;
5682;SDS011;2864;49.220;8.654;2023-03-23T10:51:04;1.77;;;1.57;;
5682;SDS011;2864;49.220;8.654;2023-03-23T10:53:37;1.70;;;1.60;;
5682;SDS011;2864;49.220;8.654;2023-03-23T10:56:04;2.10;;;1.53;;
5682;SDS011;2864;49.220;8.654;2023-03-23T10:58:43;1.53;;;1.30;;
5682;SDS011;2864;49.220;8.654;2023-03-23T11:01:10;2.87;;;1.60;;
5682;SDS011;2864;49.220;8.654;2023-03-23T11:03:40;2.53;;;1.60;;
5682;SDS011;2864;49.220;8.654;2023-03-23T11:06:07;1.67;;;1.40;;
5682;SDS011;2864;49.220;8.654;2023-03-23T11:08:37;3.00;;;1.70;;
5682;SDS011;2864;49.220;8.654;2023-03-23T11:11:09;2.03;;;1.83;;
5682;SDS011;2864;49.220;8.654;2023-03-23T11:13:38;2.23;;;1.87;;
5682;SDS011;2864;49.220;8.654;2023-03-23T11:16:08;1.80;;;1.60;;
5682;SDS011;2864;49.220;8.654;2023-03-23T11:21:02;3.23;;;1.93;;
5682;SDS011;2864;49.220;8.654;2023-03-23T11:23:34;2.67;;;1.80;;
5682;SDS011;2864;49.220;8.654;2023-03-23T11:26:14;2.07;;;1.90;;
5682;SDS011;2864;49.220;8.654;2023-03-23T11:28:43;2.07;;;1.60;;
5682;SDS011;2864;49.220;8.654;2023-03-23T11:31:09;2.60;;;1.80;;
5682;SDS011;2864;49.220;8.654;2023-03-23T11:33:53;3.33;;;1.70;;
5682;SDS011;2864;49.220;8.654;2023-03-23T11:36:20;1.53;;;1.43;;
5682;SDS011;2864;49.220;8.654;2023-03-23T11:38:51;2.63;;;1.80;;
5682;SDS011;2864;49.220;8.654;2023-03-23T11:41:21;1.97;;;1.73;;
5682;SDS011;2864;49.220;8.654;2023-03-23T11:43:50;2.53;;;1.70;;
5682;SDS011;2864;49.220;8.654;2023-03-23T11:48:44;2.00;;;1.50;;
5682;SDS011;2864;49.220;8.654;2023-03-23T11:51:17;1.93;;;1.50;;
5682;SDS011;2864;49.220;8.654;2023-03-23T11:58:55;1.70;;;1.60;;
5682;SDS011;2864;49.220;8.654;2023-03-23T12:05:29;2.30;;;1.60;;
5682;SDS011;2864;49.220;8.654;2023-03-23T12:10:11;1.80;;;1.70;;
5682;SDS011;2864;49.220;8.654;2023-03-23T12:17:43;2.80;;;1.87;;
5682;SDS011;2864;49.220;8.654;2023-03-23T12:20:19;2.10;;;1.80;;
5682;SDS011;2864;49.220;8.654;2023-03-23T12:22:50;2.87;;;1.70;;
5682;SDS011;2864;49.220;8.654;2023-03-23T12:30:42;3.63;;;1.97;;
5682;SDS011;2864;49.220;8.654;2023-03-23T12:43:38;1.80;;;1.60;;
5682;SDS011;2864;49.220;8.654;2023-03-23T12:49:05;3.20;;;1.80;;
5682;SDS011;2864;49.220;8.654;2023-03-23T12:51:35;1.97;;;1.67;;
5682;SDS011;2864;49.220;8.654;2023-03-23T12:59:54;2.00;;;1.80;;
5682;SDS011;2864;49.220;8.654;2023-03-23T13:02:29;3.60;;;1.70;;
5682;SDS011;2864;49.220;8.654;2023-03-23T13:05:00;2.00;;;1.80;;
5682;SDS011;2864;49.220;8.654;2023-03-23T13:07:32;3.27;;;2.20;;
5682;SDS011;2864;49.220;8.654;2023-03-23T13:10:03;3.43;;;2.20;;
5682;SDS011;2864;49.220;8.654;2023-03-23T13:12:30;3.20;;;1.97;;
5682;SDS011;2864;49.220;8.654;2023-03-23T13:17:38;3.43;;;1.87;;
5682;SDS011;2864;49.220;8.654;2023-03-23T13:20:24;1.90;;;1.70;;
5682;SDS011;2864;49.220;8.654;2023-03-23T13:28:31;3.37;;;2.00;;
5682;SDS011;2864;49.220;8.654;2023-03-23T13:33:34;1.97;;;1.70;;
5682;SDS011;2864;49.220;8.654;2023-03-23T13:36:07;4.17;;;1.90;;
5682;SDS011;2864;49.220;8.654;2023-03-23T13:38:34;2.20;;;1.80;;
5682;SDS011;2864;49.220;8.654;2023-03-23T13:41:06;1.90;;;1.60;;
5682;SDS011;2864;49.220;8.654;2023-03-23T13:43:33;2.30;;;1.70;;
5682;SDS011;2864;49.220;8.654;2023-03-23T13:48:46;1.73;;;1.63;;
5682;SDS011;2864;49.220;8.654;2023-03-23T13:51:31;3.30;;;1.90;;
5682;SDS011;2864;49.220;8.654;2023-03-23T13:55:08;4.50;;;1.70;;
5682;SDS011;2864;49.220;8.654;2023-03-23T14:01:52;1.90;;;1.67;;
5682;SDS011;2864;49.220;8.654;2023-03-23T14:04:18;3.40;;;1.60;;
5682;SDS011;2864;49.220;8.654;2023-03-23T14:06:49;2.37;;;1.73;;
5682;SDS011;2864;49.220;8.654;2023-03-23T14:09:23;1.87;;;1.53;;
5682;SDS011;2864;49.220;8.654;2023-03-23T14:11:58;3.47;;;1.93;;
5682;SDS011;2864;49.220;8.654;2023-03-23T14:17:12;3.07;;;1.73;;
5682;SDS011;2864;49.220;8.654;2023-03-23T14:19:40;2.50;;;1.60;;
5682;SDS011;2864;49.220;8.654;2023-03-23T14:22:16;1.93;;;1.60;;
5682;SDS011;2864;49.220;8.654;2023-03-23T14:24:42;2.80;;;1.93;;
5682;SDS011;2864;49.220;8.654;2023-03-23T14:27:16;2.17;;;1.90;;
5682;SDS011;2864;49.220;8.654;2023-03-23T14:29:42;3.00;;;1.70;;
5682;SDS011;2864;49.220;8.654;2023-03-23T14:32:13;2.07;;;1.87;;
5682;SDS011;2864;49.220;8.654;2023-03-23T14:34:40;3.07;;;1.80;;
5682;SDS011;2864;49.220;8.654;2023-03-23T14:37:08;4.47;;;1.90;;
5682;SDS011;2864;49.220;8.654;2023-03-23T14:39:35;3.97;;;2.00;;
5682;SDS011;2864;49.220;8.654;2023-03-23T14:42:06;2.00;;;1.73;;
5682;SDS011;2864;49.220;8.654;2023-03-23T14:44:34;1.70;;;1.60;;
5682;SDS011;2864;49.220;8.654;2023-03-23T14:47:03;2.00;;;1.80;;
5682;SDS011;2864;49.220;8.654;2023-03-23T14:49:31;2.23;;;1.80;;
5682;SDS011;2864;49.220;8.654;2023-03-23T14:52:02;2.83;;;1.83;;
5682;SDS011;2864;49.220;8.654;2023-03-23T14:54:28;2.10;;;1.80;;
5682;SDS011;2864;49.220;8.654;2023-03-23T14:56:54;1.93;;;1.70;;
5682;SDS011;2864;49.220;8.654;2023-03-23T14:59:20;2.70;;;1.73;;
5682;SDS011;2864;49.220;8.654;2023-03-23T15:01:47;4.00;;;1.70;;
5682;SDS011;2864;49.220;8.654;2023-03-23T15:04:16;2.53;;;1.70;;
5682;SDS011;2864;49.220;8.654;2023-03-23T15:06:45;5.97;;;2.10;;
5682;SDS011;2864;49.220;8.654;2023-03-23T15:09:13;2.40;;;1.70;;
5682;SDS011;2864;49.220;8.654;2023-03-23T15:11:40;2.03;;;1.83;;
5682;SDS011;2864;49.220;8.654;2023-03-23T15:14:17;1.97;;;1.77;;
5682;SDS011;2864;49.220;8.654;2023-03-23T15:16:47;2.83;;;2.00;;
5682;SDS011;2864;49.220;8.654;2023-03-23T15:22:06;5.40;;;2.57;;
5682;SDS011;2864;49.220;8.654;2023-03-23T15:24:33;3.53;;;2.13;;
5682;SDS011;2864;49.220;8.654;2023-03-23T15:27:43;2.67;;;2.20;;
5682;SDS011;2864;49.220;8.654;2023-03-23T15:29:53;4.60;;;3.00;;
5682;SDS011;2864;49.220;8.654;2023-03-23T15:32:23;4.10;;;3.00;;
5682;SDS011;2864;49.220;8.654;2023-03-23T15:34:52;3.37;;;2.80;;
5682;SDS011;2864;49.220;8.654;2023-03-23T15:37:20;3.27;;;2.87;;
5682;SDS011;2864;49.220;8.654;2023-03-23T15:39:46;2.97;;;2.37;;
5682;SDS011;2864;49.220;8.654;2023-03-23T15:42:23;3.60;;;2.20;;
5682;SDS011;2864;49.220;8.654;2023-03-23T15:52:35;3.23;;;2.60;;
5682;SDS011;2864;49.220;8.654;2023-03-23T15:55:01;4.87;;;3.10;;
5682;SDS011;2864;49.220;8.654;2023-03-23T15:57:27;4.67;;;2.63;;
5682;SDS011;2864;49.220;8.654;2023-03-23T15:59:53;4.97;;;2.50;;
5682;SDS011;2864;49.220;8.654;2023-03-23T16:02:22;6.77;;;2.90;;
5682;SDS011;2864;49.220;8.654;2023-03-23T16:04:49;4.23;;;2.83;;
5682;SDS011;2864;49.220;8.654;2023-03-23T16:07:16;2.43;;;2.20;;
5682;SDS011;2864;49.220;8.654;2023-03-23T16:09:43;2.93;;;2.43;;
5682;SDS011;2864;49.220;8.654;2023-03-23T16:12:12;3.20;;;2.07;;
5682;SDS011;2864;49.220;8.654;2023-03-23T16:14:38;2.83;;;2.10;;
5682;SDS011;2864;49.220;8.654;2023-03-23T16:17:05;8.00;;;4.60;;
5682;SDS011;2864;49.220;8.654;2023-03-23T16:19:31;8.90;;;4.67;;
5682;SDS011;2864;49.220;8.654;2023-03-23T16:21:57;5.07;;;2.97;;
5682;SDS011;2864;49.220;8.654;2023-03-23T16:24:23;6.50;;;3.30;;
5682;SDS011;2864;49.220;8.654;2023-03-23T16:26:49;6.43;;;3.10;;
5682;SDS011;2864;49.220;8.654;2023-03-23T16:29:15;7.77;;;3.00;;
5682;SDS011;2864;49.220;8.654;2023-03-23T16:31:41;3.03;;;2.53;;
5682;SDS011;2864;49.220;8.654;2023-03-23T16:34:07;4.80;;;2.80;;
5682;SDS011;2864;49.220;8.654;2023-03-23T16:36:33;2.90;;;2.47;;
5682;SDS011;2864;49.220;8.654;2023-03-23T16:39:00;2.87;;;2.53;;
5682;SDS011;2864;49.220;8.654;2023-03-23T16:41:26;3.10;;;2.63;;
5682;SDS011;2864;49.220;8.654;2023-03-23T16:43:52;2.97;;;2.63;;
5682;SDS011;2864;49.220;8.654;2023-03-23T16:46:18;3.40;;;2.90;;
5682;SDS011;2864;49.220;8.654;2023-03-23T16:48:44;3.27;;;2.80;;
5682;SDS011;2864;49.220;8.654;2023-03-23T16:51:10;3.27;;;2.63;;
5682;SDS011;2864;49.220;8.654;2023-03-23T16:53:36;4.27;;;3.33;;
5682;SDS011;2864;49.220;8.654;2023-03-23T16:56:02;5.47;;;3.10;;
5682;SDS011;2864;49.220;8.654;2023-03-23T16:58:28;4.07;;;2.83;;
5682;SDS011;2864;49.220;8.654;2023-03-23T17:00:55;7.53;;;4.30;;
5682;SDS011;2864;49.220;8.654;2023-03-23T17:03:21;5.83;;;4.30;;
5682;SDS011;2864;49.220;8.654;2023-03-23T17:05:48;3.67;;;3.27;;
5682;SDS011;2864;49.220;8.654;2023-03-23T17:08:14;5.03;;;3.80;;
5682;SDS011;2864;49.220;8.654;2023-03-23T17:10:41;14.00;;;7.10;;
5682;SDS011;2864;49.220;8.654;2023-03-23T17:13:08;8.67;;;4.23;;
5682;SDS011;2864;49.220;8.654;2023-03-23T17:15:35;9.10;;;7.47;;
5682;SDS011;2864;49.220;8.654;2023-03-23T17:18:02;4.83;;;3.77;;
5682;SDS011;2864;49.220;8.654;2023-03-23T17:20:28;4.67;;;3.60;;
5682;SDS011;2864;49.220;8.654;2023-03-23T17:22:55;5.27;;;3.40;;